KAC107 OKKK-HECA
Flight info
| Callsign | KAC107 |
|---|---|
| Flight time | 2h 35m |
| Altitude | 36000 |
| Route | NIDAP1L NIDAP L550 NOVPA N697 MENLI L677 CVO DCT |
| Aircraft | A320/M-SDE3FGHIRWY/LB1 |
Departure
| Time | 2026-05-06 19:56 |
|---|---|
| Airport | Kuwait International Airport (OKKK) |
Arrival
| Time | 2026-05-06 22:31 |
|---|---|
| Airport | Cairo International Airport (HECA) |
| Time | Latitude | Longitude | Altitude | Speed | Heading |
|---|---|---|---|---|---|
| 2026-05-06 19:28 | 29.25051 | 47.96032 | 168 ft | 0 kts | 67° |
| 2026-05-06 19:38 | 29.25043 | 47.96009 | 167 ft | 4 kts | 67° |
| 2026-05-06 19:39 | 29.25034 | 47.95985 | 167 ft | 2 kts | 67° |
| 2026-05-06 19:39 | 29.25027 | 47.95958 | 166 ft | 4 kts | 96° |
| 2026-05-06 19:39 | 29.25032 | 47.95933 | 166 ft | 4 kts | 134° |
| 2026-05-06 19:39 | 29.25051 | 47.95919 | 166 ft | 2 kts | 154° |
| 2026-05-06 19:40 | 29.25074 | 47.95907 | 166 ft | 3 kts | 155° |
| 2026-05-06 19:40 | 29.25078 | 47.95905 | 166 ft | 0 kts | 155° |
| 2026-05-06 19:44 | 29.25074 | 47.95907 | 166 ft | 4 kts | 155° |
| 2026-05-06 19:44 | 29.25044 | 47.95923 | 166 ft | 4 kts | 155° |
| 2026-05-06 19:45 | 29.25021 | 47.95935 | 166 ft | 3 kts | 156° |
| 2026-05-06 19:45 | 29.24997 | 47.95941 | 166 ft | 7 kts | 176° |
| 2026-05-06 19:45 | 29.24949 | 47.95932 | 165 ft | 7 kts | 179° |
| 2026-05-06 19:45 | 29.24907 | 47.95946 | 165 ft | 6 kts | 158° |
| 2026-05-06 19:46 | 29.24874 | 47.95963 | 165 ft | 5 kts | 155° |
| 2026-05-06 19:46 | 29.24831 | 47.95986 | 165 ft | 10 kts | 155° |
| 2026-05-06 19:46 | 29.24773 | 47.96017 | 165 ft | 8 kts | 154° |
| 2026-05-06 19:46 | 29.24725 | 47.96043 | 165 ft | 7 kts | 154° |
| 2026-05-06 19:47 | 29.24686 | 47.96064 | 165 ft | 6 kts | 155° |
| 2026-05-06 19:47 | 29.24656 | 47.96080 | 165 ft | 4 kts | 155° |
| 2026-05-06 19:47 | 29.24633 | 47.96093 | 165 ft | 3 kts | 155° |
| 2026-05-06 19:47 | 29.24617 | 47.96101 | 165 ft | 2 kts | 155° |
| 2026-05-06 19:48 | 29.24589 | 47.96116 | 165 ft | 13 kts | 155° |
| 2026-05-06 19:48 | 29.24483 | 47.96171 | 165 ft | 18 kts | 156° |
| 2026-05-06 19:48 | 29.24365 | 47.96236 | 165 ft | 20 kts | 156° |
| 2026-05-06 19:48 | 29.24238 | 47.96301 | 165 ft | 21 kts | 155° |
| 2026-05-06 19:49 | 29.24107 | 47.96373 | 166 ft | 22 kts | 155° |
| 2026-05-06 19:49 | 29.23964 | 47.96449 | 165 ft | 23 kts | 155° |
| 2026-05-06 19:49 | 29.23813 | 47.96530 | 166 ft | 25 kts | 154° |
| 2026-05-06 19:49 | 29.23654 | 47.96613 | 169 ft | 25 kts | 157° |
| 2026-05-06 19:50 | 29.23501 | 47.96693 | 175 ft | 24 kts | 154° |
| 2026-05-06 19:50 | 29.23352 | 47.96772 | 178 ft | 23 kts | 159° |
| 2026-05-06 19:50 | 29.23202 | 47.96855 | 176 ft | 25 kts | 153° |
| 2026-05-06 19:50 | 29.23038 | 47.96937 | 170 ft | 23 kts | 153° |
| 2026-05-06 19:51 | 29.22891 | 47.97022 | 169 ft | 25 kts | 152° |
| 2026-05-06 19:51 | 29.22731 | 47.97108 | 169 ft | 26 kts | 157° |
| 2026-05-06 19:51 | 29.22559 | 47.97193 | 169 ft | 28 kts | 155° |
| 2026-05-06 19:51 | 29.22385 | 47.97287 | 169 ft | 29 kts | 154° |
| 2026-05-06 19:52 | 29.22197 | 47.97386 | 169 ft | 30 kts | 156° |
| 2026-05-06 19:52 | 29.22008 | 47.97484 | 168 ft | 31 kts | 155° |
| 2026-05-06 19:52 | 29.21812 | 47.97591 | 168 ft | 31 kts | 154° |
| 2026-05-06 19:52 | 29.21613 | 47.97700 | 169 ft | 32 kts | 155° |
| 2026-05-06 19:53 | 29.21412 | 47.97800 | 171 ft | 31 kts | 156° |
| 2026-05-06 19:53 | 29.21317 | 47.97846 | 171 ft | 8 kts | 162° |
| 2026-05-06 19:53 | 29.21272 | 47.97848 | 171 ft | 5 kts | 213° |
| 2026-05-06 19:53 | 29.21252 | 47.97821 | 171 ft | 4 kts | 232° |
| 2026-05-06 19:54 | 29.21243 | 47.97801 | 172 ft | 4 kts | 251° |
| 2026-05-06 19:54 | 29.21243 | 47.97757 | 173 ft | 6 kts | 280° |
| 2026-05-06 19:54 | 29.21271 | 47.97694 | 175 ft | 8 kts | 302° |
| 2026-05-06 19:54 | 29.21287 | 47.97665 | 179 ft | 4 kts | 302° |
| 2026-05-06 19:55 | 29.21310 | 47.97612 | 182 ft | 7 kts | 303° |
| 2026-05-06 19:55 | 29.21349 | 47.97588 | 182 ft | 7 kts | 331° |
| 2026-05-06 19:55 | 29.21551 | 47.97480 | 179 ft | 69 kts | 335° |
| 2026-05-06 19:55 | 29.22191 | 47.97143 | 183 ft | 130 kts | 335° |
| 2026-05-06 19:56 | 29.23148 | 47.96636 | 268 ft | 169 kts | 336° |
| 2026-05-06 19:56 | 29.24251 | 47.96077 | 806 ft | 178 kts | 338° |
| 2026-05-06 19:56 | 29.25411 | 47.95508 | 1362 ft | 186 kts | 337° |
| 2026-05-06 19:56 | 29.26653 | 47.94849 | 1660 ft | 208 kts | 336° |
| 2026-05-06 19:57 | 29.27989 | 47.94122 | 2283 ft | 214 kts | 336° |
| 2026-05-06 19:57 | 29.29351 | 47.93379 | 2926 ft | 220 kts | 335° |
| 2026-05-06 19:57 | 29.30748 | 47.92622 | 3580 ft | 223 kts | 335° |
| 2026-05-06 19:57 | 29.32161 | 47.91858 | 4268 ft | 225 kts | 335° |
| 2026-05-06 19:58 | 29.33522 | 47.90879 | 4715 ft | 240 kts | 313° |
| 2026-05-06 19:58 | 29.34342 | 47.89206 | 5340 ft | 244 kts | 281° |
| 2026-05-06 19:58 | 29.34303 | 47.87309 | 6049 ft | 244 kts | 251° |
| 2026-05-06 19:58 | 29.33488 | 47.85595 | 6814 ft | 243 kts | 236° |
| 2026-05-06 19:59 | 29.32561 | 47.83998 | 7505 ft | 245 kts | 236° |
| 2026-05-06 19:59 | 29.31591 | 47.82343 | 8170 ft | 249 kts | 237° |
| 2026-05-06 19:59 | 29.30627 | 47.80713 | 8817 ft | 252 kts | 234° |
| 2026-05-06 19:59 | 29.29248 | 47.79471 | 9465 ft | 258 kts | 200° |
| 2026-05-06 20:00 | 29.27426 | 47.79330 | 9865 ft | 278 kts | 168° |
| 2026-05-06 20:00 | 29.25578 | 47.80238 | 10119 ft | 301 kts | 149° |
| 2026-05-06 20:00 | 29.23847 | 47.81662 | 10745 ft | 308 kts | 143° |
| 2026-05-06 20:00 | 29.22194 | 47.83234 | 11554 ft | 308 kts | 142° |
| 2026-05-06 20:01 | 29.20523 | 47.84763 | 12336 ft | 307 kts | 149° |
| 2026-05-06 20:01 | 29.18615 | 47.85981 | 12661 ft | 324 kts | 157° |
| 2026-05-06 20:01 | 29.16515 | 47.87078 | 12802 ft | 346 kts | 160° |
| 2026-05-06 20:01 | 29.14241 | 47.88148 | 13099 ft | 360 kts | 161° |
| 2026-05-06 20:02 | 29.11892 | 47.89202 | 13667 ft | 365 kts | 162° |
| 2026-05-06 20:02 | 29.09512 | 47.90261 | 14307 ft | 369 kts | 162° |
| 2026-05-06 20:02 | 29.07116 | 47.91333 | 14930 ft | 372 kts | 162° |
| 2026-05-06 20:02 | 29.04695 | 47.92431 | 15542 ft | 376 kts | 162° |
| 2026-05-06 20:03 | 29.02253 | 47.93554 | 16164 ft | 379 kts | 162° |
| 2026-05-06 20:03 | 28.99796 | 47.94696 | 16762 ft | 383 kts | 162° |
| 2026-05-06 20:03 | 28.97323 | 47.95853 | 17345 ft | 386 kts | 162° |
| 2026-05-06 20:03 | 28.94816 | 47.96965 | 17905 ft | 387 kts | 167° |
| 2026-05-06 20:04 | 28.92199 | 47.97615 | 18450 ft | 384 kts | 178° |
| 2026-05-06 20:04 | 28.89525 | 47.97765 | 18997 ft | 384 kts | 182° |
| 2026-05-06 20:04 | 28.86843 | 47.97839 | 19539 ft | 387 kts | 182° |
| 2026-05-06 20:04 | 28.84140 | 47.97918 | 20062 ft | 390 kts | 182° |
| 2026-05-06 20:05 | 28.81456 | 47.98000 | 20588 ft | 392 kts | 182° |
| 2026-05-06 20:05 | 28.78719 | 47.98089 | 21070 ft | 394 kts | 182° |
| 2026-05-06 20:05 | 28.75967 | 47.98183 | 21543 ft | 396 kts | 182° |
| 2026-05-06 20:05 | 28.73202 | 47.98276 | 22022 ft | 399 kts | 182° |
| 2026-05-06 20:06 | 28.70416 | 47.98368 | 22471 ft | 401 kts | 182° |
| 2026-05-06 20:06 | 28.67656 | 47.98077 | 22900 ft | 397 kts | 198° |
| 2026-05-06 20:06 | 28.65221 | 47.96763 | 23317 ft | 393 kts | 218° |
| 2026-05-06 20:06 | 28.63374 | 47.94474 | 23711 ft | 395 kts | 239° |
| 2026-05-06 20:07 | 28.62450 | 47.91521 | 24094 ft | 402 kts | 260° |
| 2026-05-06 20:07 | 28.62600 | 47.88325 | 24480 ft | 412 kts | 278° |
| 2026-05-06 20:07 | 28.63192 | 47.85132 | 24877 ft | 410 kts | 273° |
| 2026-05-06 20:07 | 28.63469 | 47.81902 | 25283 ft | 411 kts | 271° |
| 2026-05-06 20:08 | 28.63724 | 47.78657 | 25687 ft | 412 kts | 271° |
| 2026-05-06 20:08 | 28.63964 | 47.75403 | 26103 ft | 412 kts | 271° |
| 2026-05-06 20:08 | 28.64192 | 47.72145 | 26501 ft | 413 kts | 271° |
| 2026-05-06 20:08 | 28.64416 | 47.68879 | 26894 ft | 414 kts | 270° |
| 2026-05-06 20:09 | 28.64639 | 47.65605 | 27271 ft | 415 kts | 270° |
| 2026-05-06 20:09 | 28.64865 | 47.62320 | 27648 ft | 416 kts | 270° |
| 2026-05-06 20:09 | 28.65099 | 47.59029 | 28005 ft | 417 kts | 271° |
| 2026-05-06 20:09 | 28.65361 | 47.55736 | 28347 ft | 418 kts | 271° |
| 2026-05-06 20:10 | 28.65638 | 47.52475 | 28677 ft | 419 kts | 271° |
| 2026-05-06 20:10 | 28.65927 | 47.49171 | 29007 ft | 420 kts | 271° |
| 2026-05-06 20:10 | 28.66218 | 47.45858 | 29328 ft | 421 kts | 271° |
| 2026-05-06 20:10 | 28.66504 | 47.42535 | 29614 ft | 422 kts | 271° |
| 2026-05-06 20:11 | 28.66785 | 47.39205 | 29920 ft | 422 kts | 271° |
| 2026-05-06 20:11 | 28.67059 | 47.35886 | 30326 ft | 420 kts | 270° |
| 2026-05-06 20:11 | 28.67329 | 47.32580 | 30756 ft | 418 kts | 270° |
| 2026-05-06 20:11 | 28.67596 | 47.29302 | 31186 ft | 415 kts | 270° |
| 2026-05-06 20:12 | 28.67862 | 47.26048 | 31619 ft | 412 kts | 270° |
| 2026-05-06 20:12 | 28.68128 | 47.22806 | 32023 ft | 409 kts | 270° |
| 2026-05-06 20:12 | 28.68390 | 47.19591 | 32448 ft | 406 kts | 270° |
| 2026-05-06 20:12 | 28.68650 | 47.16397 | 32846 ft | 404 kts | 269° |
| 2026-05-06 20:13 | 28.68907 | 47.13219 | 33229 ft | 402 kts | 269° |
| 2026-05-06 20:13 | 28.69160 | 47.10059 | 33627 ft | 399 kts | 269° |
| 2026-05-06 20:13 | 28.69410 | 47.06914 | 34013 ft | 397 kts | 269° |
| 2026-05-06 20:13 | 28.69657 | 47.03796 | 34400 ft | 394 kts | 269° |
| 2026-05-06 20:14 | 28.69901 | 47.00727 | 34749 ft | 392 kts | 269° |
| 2026-05-06 20:14 | 28.70148 | 46.97636 | 35064 ft | 391 kts | 269° |
| 2026-05-06 20:14 | 28.70393 | 46.94552 | 35366 ft | 390 kts | 269° |
| 2026-05-06 20:14 | 28.70637 | 46.91474 | 35661 ft | 389 kts | 269° |
| 2026-05-06 20:15 | 28.70880 | 46.88407 | 35904 ft | 388 kts | 269° |
| 2026-05-06 20:15 | 28.71123 | 46.85340 | 35974 ft | 388 kts | 268° |
| 2026-05-06 20:15 | 28.71603 | 46.79216 | 35980 ft | 387 kts | 268° |
| 2026-05-06 20:16 | 28.72085 | 46.73104 | 35979 ft | 387 kts | 269° |
| 2026-05-06 20:16 | 28.72566 | 46.67031 | 35990 ft | 388 kts | 268° |
| 2026-05-06 20:17 | 28.73049 | 46.60904 | 35988 ft | 388 kts | 268° |
| 2026-05-06 20:17 | 28.73532 | 46.54771 | 35988 ft | 388 kts | 268° |
| 2026-05-06 20:18 | 28.74002 | 46.48654 | 35987 ft | 387 kts | 268° |
| 2026-05-06 20:18 | 28.74474 | 46.42545 | 35987 ft | 387 kts | 268° |
| 2026-05-06 20:19 | 28.74939 | 46.36431 | 35990 ft | 387 kts | 268° |
| 2026-05-06 20:19 | 28.75398 | 46.30364 | 35988 ft | 386 kts | 268° |
| 2026-05-06 20:20 | 28.75843 | 46.24255 | 35994 ft | 386 kts | 268° |
| 2026-05-06 20:20 | 28.76284 | 46.18159 | 35991 ft | 386 kts | 268° |
| 2026-05-06 20:21 | 28.76729 | 46.12048 | 35994 ft | 386 kts | 268° |
| 2026-05-06 20:21 | 28.77167 | 46.05949 | 35991 ft | 386 kts | 268° |
| 2026-05-06 20:22 | 28.77525 | 46.00878 | 35989 ft | 386 kts | 268° |
| 2026-05-06 20:22 | 28.77951 | 45.94781 | 35986 ft | 386 kts | 268° |
| 2026-05-06 20:23 | 28.78458 | 45.87680 | 35992 ft | 386 kts | 268° |
| 2026-05-06 20:23 | 28.78822 | 45.82601 | 35989 ft | 386 kts | 268° |
| 2026-05-06 20:24 | 28.79247 | 45.76501 | 35991 ft | 386 kts | 267° |
| 2026-05-06 20:24 | 28.79666 | 45.70397 | 35984 ft | 386 kts | 267° |
| 2026-05-06 20:25 | 28.80087 | 45.64297 | 35985 ft | 386 kts | 267° |
| 2026-05-06 20:25 | 28.80511 | 45.58176 | 35987 ft | 387 kts | 267° |
| 2026-05-06 20:26 | 28.80934 | 45.52065 | 35989 ft | 387 kts | 267° |
| 2026-05-06 20:26 | 28.81347 | 45.45990 | 35994 ft | 387 kts | 267° |
| 2026-05-06 20:27 | 28.81754 | 45.39881 | 35993 ft | 387 kts | 267° |
| 2026-05-06 20:27 | 28.82165 | 45.33757 | 35990 ft | 386 kts | 267° |
| 2026-05-06 20:28 | 28.82574 | 45.27646 | 35991 ft | 386 kts | 267° |
| 2026-05-06 20:28 | 28.82981 | 45.21536 | 35989 ft | 386 kts | 267° |
| 2026-05-06 20:29 | 28.83382 | 45.15420 | 35987 ft | 387 kts | 267° |
| 2026-05-06 20:29 | 28.83785 | 45.09299 | 35988 ft | 387 kts | 267° |
| 2026-05-06 20:30 | 28.84376 | 45.00145 | 35995 ft | 387 kts | 267° |
| 2026-05-06 20:31 | 28.84772 | 44.94009 | 36001 ft | 387 kts | 267° |
| 2026-05-06 20:31 | 28.85163 | 44.87886 | 36000 ft | 387 kts | 267° |
| 2026-05-06 20:32 | 28.85546 | 44.81764 | 35997 ft | 387 kts | 266° |
| 2026-05-06 20:32 | 28.85923 | 44.75666 | 36000 ft | 387 kts | 266° |
| 2026-05-06 20:33 | 28.86353 | 44.69544 | 36000 ft | 388 kts | 268° |
| 2026-05-06 20:33 | 28.86871 | 44.63398 | 36001 ft | 389 kts | 268° |
| 2026-05-06 20:34 | 28.87390 | 44.57256 | 36002 ft | 389 kts | 268° |
| 2026-05-06 20:34 | 28.87888 | 44.51100 | 36004 ft | 389 kts | 268° |
| 2026-05-06 20:35 | 28.88369 | 44.44959 | 36004 ft | 388 kts | 267° |
| 2026-05-06 20:35 | 28.88848 | 44.38853 | 36005 ft | 388 kts | 268° |
| 2026-05-06 20:36 | 28.89326 | 44.32715 | 36010 ft | 388 kts | 267° |
| 2026-05-06 20:36 | 28.89801 | 44.26574 | 36012 ft | 389 kts | 267° |
| 2026-05-06 20:37 | 28.90273 | 44.20423 | 36017 ft | 389 kts | 267° |
| 2026-05-06 20:37 | 28.90745 | 44.14268 | 36019 ft | 389 kts | 267° |
| 2026-05-06 20:38 | 28.91217 | 44.08123 | 36018 ft | 389 kts | 267° |
| 2026-05-06 20:38 | 28.91689 | 44.01975 | 36018 ft | 388 kts | 267° |
| 2026-05-06 20:39 | 28.92151 | 43.95857 | 36017 ft | 388 kts | 267° |
| 2026-05-06 20:39 | 28.92608 | 43.89700 | 36014 ft | 389 kts | 267° |
| 2026-05-06 20:40 | 28.93069 | 43.83532 | 36015 ft | 390 kts | 267° |
| 2026-05-06 20:40 | 28.93525 | 43.77359 | 36018 ft | 390 kts | 267° |
| 2026-05-06 20:41 | 28.93978 | 43.71221 | 36023 ft | 390 kts | 267° |
| 2026-05-06 20:41 | 28.94430 | 43.65036 | 36033 ft | 390 kts | 267° |
| 2026-05-06 20:42 | 28.94880 | 43.58860 | 36030 ft | 391 kts | 267° |
| 2026-05-06 20:42 | 28.95329 | 43.52664 | 36034 ft | 392 kts | 267° |
| 2026-05-06 20:43 | 28.95776 | 43.46461 | 36034 ft | 392 kts | 267° |
| 2026-05-06 20:43 | 28.96223 | 43.40259 | 36036 ft | 392 kts | 267° |
| 2026-05-06 20:44 | 28.96659 | 43.34097 | 36042 ft | 392 kts | 267° |
| 2026-05-06 20:44 | 28.97089 | 43.27890 | 36039 ft | 392 kts | 267° |
| 2026-05-06 20:45 | 28.97521 | 43.21690 | 36043 ft | 392 kts | 267° |
| 2026-05-06 20:45 | 28.97950 | 43.15477 | 36041 ft | 392 kts | 267° |
| 2026-05-06 20:46 | 28.98376 | 43.09294 | 36037 ft | 392 kts | 267° |
| 2026-05-06 20:46 | 28.98798 | 43.03079 | 36035 ft | 392 kts | 267° |
| 2026-05-06 20:47 | 28.99223 | 42.96864 | 36034 ft | 392 kts | 267° |
| 2026-05-06 20:47 | 28.99648 | 42.90645 | 36033 ft | 393 kts | 267° |
| 2026-05-06 20:48 | 29.00063 | 42.84420 | 36033 ft | 393 kts | 267° |
| 2026-05-06 20:48 | 29.00474 | 42.78184 | 36035 ft | 393 kts | 267° |
| 2026-05-06 20:49 | 29.00886 | 42.71997 | 36035 ft | 393 kts | 267° |
| 2026-05-06 20:49 | 29.01296 | 42.65760 | 36041 ft | 393 kts | 267° |
| 2026-05-06 20:50 | 29.01702 | 42.59519 | 36038 ft | 394 kts | 267° |
| 2026-05-06 20:50 | 29.02113 | 42.53274 | 36038 ft | 394 kts | 267° |
| 2026-05-06 20:51 | 29.02514 | 42.47032 | 36043 ft | 394 kts | 267° |
| 2026-05-06 20:51 | 29.02908 | 42.40790 | 36049 ft | 394 kts | 267° |
| 2026-05-06 20:52 | 29.03304 | 42.34579 | 36046 ft | 394 kts | 267° |
| 2026-05-06 20:52 | 29.03699 | 42.28340 | 36038 ft | 394 kts | 267° |
| 2026-05-06 20:53 | 29.04081 | 42.22093 | 36051 ft | 394 kts | 267° |
| 2026-05-06 20:53 | 29.04462 | 42.15854 | 36040 ft | 394 kts | 267° |
| 2026-05-06 20:54 | 29.04848 | 42.09603 | 36043 ft | 394 kts | 267° |
| 2026-05-06 20:54 | 29.05242 | 42.03338 | 36045 ft | 394 kts | 267° |
| 2026-05-06 20:55 | 29.05626 | 41.97080 | 36042 ft | 394 kts | 267° |
| 2026-05-06 20:55 | 29.05998 | 41.90857 | 36051 ft | 395 kts | 268° |
| 2026-05-06 20:56 | 29.06372 | 41.84592 | 36055 ft | 395 kts | 267° |
| 2026-05-06 20:56 | 29.06735 | 41.78332 | 36063 ft | 395 kts | 267° |
| 2026-05-06 20:57 | 29.07096 | 41.72064 | 36063 ft | 394 kts | 267° |
| 2026-05-06 20:57 | 29.07459 | 41.65796 | 36071 ft | 394 kts | 267° |
| 2026-05-06 20:58 | 29.07818 | 41.59543 | 36069 ft | 394 kts | 267° |
| 2026-05-06 20:58 | 29.08175 | 41.53286 | 36070 ft | 394 kts | 267° |
| 2026-05-06 20:59 | 29.08521 | 41.47076 | 36069 ft | 394 kts | 267° |
| 2026-05-06 20:59 | 29.08863 | 41.40817 | 36068 ft | 394 kts | 267° |
| 2026-05-06 21:00 | 29.09214 | 41.34566 | 36072 ft | 394 kts | 267° |
| 2026-05-06 21:00 | 29.09565 | 41.28317 | 36076 ft | 394 kts | 267° |
| 2026-05-06 21:01 | 29.09912 | 41.22063 | 36080 ft | 394 kts | 267° |
| 2026-05-06 21:01 | 29.10256 | 41.15812 | 36079 ft | 393 kts | 267° |
| 2026-05-06 21:02 | 29.10592 | 41.09612 | 36079 ft | 393 kts | 267° |
| 2026-05-06 21:02 | 29.10922 | 41.03376 | 36081 ft | 393 kts | 267° |
| 2026-05-06 21:03 | 29.11250 | 40.97136 | 36084 ft | 392 kts | 267° |
| 2026-05-06 21:03 | 29.11581 | 40.90894 | 36085 ft | 392 kts | 267° |
| 2026-05-06 21:04 | 29.11911 | 40.84670 | 36085 ft | 392 kts | 267° |
| 2026-05-06 21:04 | 29.12234 | 40.78464 | 36087 ft | 392 kts | 267° |
| 2026-05-06 21:05 | 29.12545 | 40.72253 | 36086 ft | 391 kts | 267° |
| 2026-05-06 21:05 | 29.12857 | 40.66034 | 36083 ft | 391 kts | 267° |
| 2026-05-06 21:06 | 29.13171 | 40.59815 | 36080 ft | 392 kts | 267° |
| 2026-05-06 21:06 | 29.13145 | 40.53623 | 36085 ft | 388 kts | 263° |
| 2026-05-06 21:07 | 29.12975 | 40.48489 | 36086 ft | 388 kts | 263° |
| 2026-05-06 21:07 | 29.12742 | 40.41321 | 36088 ft | 388 kts | 263° |
| 2026-05-06 21:08 | 29.12571 | 40.36149 | 36090 ft | 388 kts | 263° |
| 2026-05-06 21:08 | 29.12364 | 40.30013 | 36093 ft | 388 kts | 263° |
| 2026-05-06 21:09 | 29.12152 | 40.23846 | 36092 ft | 387 kts | 263° |
| 2026-05-06 21:09 | 29.11941 | 40.17686 | 36090 ft | 387 kts | 263° |
| 2026-05-06 21:10 | 29.11726 | 40.11533 | 36090 ft | 387 kts | 263° |
| 2026-05-06 21:10 | 29.11507 | 40.05411 | 36090 ft | 387 kts | 263° |
| 2026-05-06 21:11 | 29.11283 | 39.99248 | 36088 ft | 387 kts | 263° |
| 2026-05-06 21:11 | 29.11053 | 39.93090 | 36089 ft | 387 kts | 263° |
| 2026-05-06 21:12 | 29.10894 | 39.86928 | 36088 ft | 388 kts | 265° |
| 2026-05-06 21:12 | 29.10945 | 39.80776 | 36089 ft | 389 kts | 266° |
| 2026-05-06 21:13 | 29.11030 | 39.74590 | 36094 ft | 389 kts | 266° |
| 2026-05-06 21:13 | 29.11070 | 39.68414 | 36098 ft | 388 kts | 265° |
| 2026-05-06 21:14 | 29.11082 | 39.62244 | 36100 ft | 388 kts | 265° |
| 2026-05-06 21:14 | 29.11090 | 39.56068 | 36101 ft | 388 kts | 265° |
| 2026-05-06 21:15 | 29.11100 | 39.49933 | 36108 ft | 388 kts | 265° |
| 2026-05-06 21:15 | 29.11110 | 39.43755 | 36106 ft | 388 kts | 265° |
| 2026-05-06 21:16 | 29.11117 | 39.37575 | 36102 ft | 388 kts | 265° |
| 2026-05-06 21:16 | 29.11123 | 39.31399 | 36100 ft | 388 kts | 265° |
| 2026-05-06 21:17 | 29.11123 | 39.25219 | 36097 ft | 389 kts | 265° |
| 2026-05-06 21:17 | 29.11121 | 39.19038 | 36091 ft | 388 kts | 265° |
| 2026-05-06 21:18 | 29.11117 | 39.12890 | 36090 ft | 388 kts | 265° |
| 2026-05-06 21:18 | 29.11106 | 39.06710 | 36085 ft | 389 kts | 265° |
| 2026-05-06 21:19 | 29.11095 | 39.00518 | 36085 ft | 389 kts | 265° |
| 2026-05-06 21:19 | 29.11082 | 38.94326 | 36087 ft | 389 kts | 265° |
| 2026-05-06 21:20 | 29.11066 | 38.88128 | 36082 ft | 389 kts | 265° |
| 2026-05-06 21:20 | 29.11038 | 38.81930 | 36078 ft | 390 kts | 265° |
| 2026-05-06 21:21 | 29.11012 | 38.75732 | 36081 ft | 390 kts | 265° |
| 2026-05-06 21:21 | 29.10982 | 38.69562 | 36078 ft | 390 kts | 265° |
| 2026-05-06 21:22 | 29.10947 | 38.63360 | 36077 ft | 390 kts | 265° |
| 2026-05-06 21:22 | 29.10911 | 38.57145 | 36075 ft | 390 kts | 265° |
| 2026-05-06 21:23 | 29.10872 | 38.50923 | 36076 ft | 391 kts | 265° |
| 2026-05-06 21:23 | 29.10826 | 38.44711 | 36076 ft | 390 kts | 265° |
| 2026-05-06 21:24 | 29.10780 | 38.38539 | 36073 ft | 390 kts | 265° |
| 2026-05-06 21:24 | 29.10732 | 38.32317 | 36069 ft | 391 kts | 265° |
| 2026-05-06 21:25 | 29.10681 | 38.26098 | 36069 ft | 391 kts | 265° |
| 2026-05-06 21:25 | 29.10626 | 38.19874 | 36066 ft | 391 kts | 265° |
| 2026-05-06 21:26 | 29.10568 | 38.13647 | 36065 ft | 391 kts | 265° |
| 2026-05-06 21:26 | 29.10513 | 38.07452 | 36063 ft | 392 kts | 265° |
| 2026-05-06 21:27 | 29.10455 | 38.01218 | 36061 ft | 392 kts | 265° |
| 2026-05-06 21:27 | 29.10386 | 37.94978 | 36063 ft | 392 kts | 265° |
| 2026-05-06 21:28 | 29.10315 | 37.88730 | 36044 ft | 393 kts | 265° |
| 2026-05-06 21:28 | 29.10243 | 37.82466 | 36043 ft | 394 kts | 265° |
| 2026-05-06 21:29 | 29.10168 | 37.76231 | 36037 ft | 395 kts | 265° |
| 2026-05-06 21:29 | 29.10086 | 37.69946 | 36038 ft | 396 kts | 265° |
| 2026-05-06 21:30 | 29.10007 | 37.63650 | 36043 ft | 396 kts | 265° |
| 2026-05-06 21:30 | 29.09926 | 37.57347 | 36047 ft | 397 kts | 265° |
| 2026-05-06 21:31 | 29.09835 | 37.51035 | 36051 ft | 397 kts | 265° |
| 2026-05-06 21:31 | 29.09762 | 37.44765 | 36052 ft | 396 kts | 265° |
| 2026-05-06 21:32 | 29.09725 | 37.38455 | 36051 ft | 397 kts | 265° |
| 2026-05-06 21:32 | 29.09669 | 37.28999 | 36046 ft | 397 kts | 265° |
| 2026-05-06 21:33 | 29.09623 | 37.22695 | 36035 ft | 397 kts | 265° |
| 2026-05-06 21:33 | 29.09566 | 37.16384 | 36031 ft | 397 kts | 265° |
| 2026-05-06 21:34 | 29.09501 | 37.10097 | 36033 ft | 398 kts | 265° |
| 2026-05-06 21:34 | 29.09440 | 37.03766 | 36028 ft | 398 kts | 265° |
| 2026-05-06 21:35 | 29.09375 | 36.97418 | 36029 ft | 398 kts | 265° |
| 2026-05-06 21:35 | 29.09299 | 36.91074 | 36030 ft | 399 kts | 265° |
| 2026-05-06 21:36 | 29.09225 | 36.84729 | 36031 ft | 399 kts | 265° |
| 2026-05-06 21:36 | 29.09153 | 36.78416 | 36034 ft | 399 kts | 265° |
| 2026-05-06 21:37 | 29.09077 | 36.72056 | 36033 ft | 400 kts | 265° |
| 2026-05-06 21:37 | 29.08993 | 36.65697 | 36032 ft | 400 kts | 265° |
| 2026-05-06 21:38 | 29.08904 | 36.59334 | 36031 ft | 400 kts | 265° |
| 2026-05-06 21:38 | 29.08814 | 36.52974 | 36028 ft | 400 kts | 265° |
| 2026-05-06 21:39 | 29.08724 | 36.46605 | 36030 ft | 401 kts | 265° |
| 2026-05-06 21:39 | 29.08568 | 36.40244 | 36032 ft | 400 kts | 264° |
| 2026-05-06 21:40 | 29.08376 | 36.33885 | 36032 ft | 400 kts | 264° |
| 2026-05-06 21:40 | 29.08191 | 36.27523 | 36034 ft | 400 kts | 264° |
| 2026-05-06 21:41 | 29.08008 | 36.21193 | 36034 ft | 401 kts | 264° |
| 2026-05-06 21:41 | 29.07827 | 36.14814 | 36037 ft | 401 kts | 264° |
| 2026-05-06 21:42 | 29.07646 | 36.08439 | 36039 ft | 401 kts | 264° |
| 2026-05-06 21:42 | 29.07457 | 36.02049 | 36042 ft | 402 kts | 264° |
| 2026-05-06 21:43 | 29.07271 | 35.95656 | 36041 ft | 402 kts | 265° |
| 2026-05-06 21:43 | 29.07082 | 35.89255 | 36040 ft | 403 kts | 265° |
| 2026-05-06 21:44 | 29.06885 | 35.82892 | 36041 ft | 403 kts | 265° |
| 2026-05-06 21:44 | 29.06675 | 35.76463 | 36044 ft | 404 kts | 265° |
| 2026-05-06 21:45 | 29.06465 | 35.70045 | 36048 ft | 404 kts | 265° |
| 2026-05-06 21:45 | 29.06258 | 35.63666 | 36051 ft | 404 kts | 265° |
| 2026-05-06 21:46 | 29.06051 | 35.57250 | 36057 ft | 404 kts | 264° |
| 2026-05-06 21:46 | 29.05842 | 35.50831 | 36059 ft | 404 kts | 264° |
| 2026-05-06 21:47 | 29.05629 | 35.44404 | 36066 ft | 405 kts | 264° |
| 2026-05-06 21:47 | 29.05412 | 35.37969 | 36068 ft | 404 kts | 264° |
| 2026-05-06 21:48 | 29.05188 | 35.31547 | 36067 ft | 405 kts | 264° |
| 2026-05-06 21:48 | 29.04956 | 35.25120 | 36070 ft | 405 kts | 264° |
| 2026-05-06 21:49 | 29.04723 | 35.18693 | 36066 ft | 405 kts | 264° |
| 2026-05-06 21:49 | 29.04501 | 35.12310 | 36065 ft | 404 kts | 264° |
| 2026-05-06 21:50 | 29.04268 | 35.05881 | 36063 ft | 404 kts | 264° |
| 2026-05-06 21:50 | 29.04026 | 34.99464 | 36065 ft | 404 kts | 264° |
| 2026-05-06 21:51 | 29.03786 | 34.93037 | 36063 ft | 405 kts | 264° |
| 2026-05-06 21:51 | 29.03544 | 34.86636 | 36064 ft | 405 kts | 264° |
| 2026-05-06 21:52 | 29.03342 | 34.80190 | 36068 ft | 406 kts | 265° |
| 2026-05-06 21:52 | 29.03259 | 34.73741 | 36064 ft | 406 kts | 266° |
| 2026-05-06 21:53 | 29.03426 | 34.67287 | 36062 ft | 410 kts | 275° |
| 2026-05-06 21:53 | 29.05023 | 34.61017 | 36062 ft | 415 kts | 284° |
| 2026-05-06 21:54 | 29.06860 | 34.54754 | 36059 ft | 415 kts | 283° |
| 2026-05-06 21:54 | 29.08383 | 34.49552 | 36053 ft | 415 kts | 283° |
| 2026-05-06 21:55 | 29.10216 | 34.43290 | 36051 ft | 415 kts | 283° |
| 2026-05-06 21:55 | 29.12052 | 34.37018 | 36051 ft | 416 kts | 283° |
| 2026-05-06 21:56 | 29.13881 | 34.30747 | 36042 ft | 416 kts | 283° |
| 2026-05-06 21:56 | 29.15697 | 34.24506 | 36032 ft | 416 kts | 283° |
| 2026-05-06 21:57 | 29.17525 | 34.18219 | 36027 ft | 416 kts | 283° |
| 2026-05-06 21:57 | 29.19351 | 34.11929 | 36022 ft | 416 kts | 283° |
| 2026-05-06 21:58 | 29.21168 | 34.05646 | 36021 ft | 416 kts | 283° |
| 2026-05-06 21:58 | 29.22988 | 33.99360 | 36019 ft | 416 kts | 283° |
| 2026-05-06 21:59 | 29.24792 | 33.93110 | 36017 ft | 416 kts | 283° |
| 2026-05-06 21:59 | 29.26600 | 33.86811 | 36011 ft | 416 kts | 284° |
| 2026-05-06 22:00 | 29.28413 | 33.80507 | 36011 ft | 416 kts | 284° |
| 2026-05-06 22:00 | 29.30219 | 33.74198 | 36008 ft | 417 kts | 283° |
| 2026-05-06 22:01 | 29.32026 | 33.67876 | 36014 ft | 417 kts | 284° |
| 2026-05-06 22:01 | 29.33829 | 33.61565 | 36012 ft | 417 kts | 284° |
| 2026-05-06 22:02 | 29.35633 | 33.55243 | 36012 ft | 417 kts | 283° |
| 2026-05-06 22:02 | 29.37429 | 33.48917 | 36016 ft | 417 kts | 283° |
| 2026-05-06 22:03 | 29.39217 | 33.42638 | 36019 ft | 417 kts | 284° |
| 2026-05-06 22:03 | 29.41021 | 33.36311 | 36026 ft | 417 kts | 283° |
| 2026-05-06 22:04 | 29.42810 | 33.29978 | 36029 ft | 417 kts | 283° |
| 2026-05-06 22:04 | 29.44588 | 33.23646 | 36034 ft | 417 kts | 283° |
| 2026-05-06 22:05 | 29.46379 | 33.17299 | 36038 ft | 417 kts | 283° |
| 2026-05-06 22:05 | 29.48175 | 33.10943 | 36043 ft | 418 kts | 283° |
| 2026-05-06 22:06 | 29.49961 | 33.04594 | 36043 ft | 418 kts | 283° |
| 2026-05-06 22:06 | 29.51736 | 32.98251 | 36056 ft | 417 kts | 283° |
| 2026-05-06 22:07 | 29.53503 | 32.91933 | 36001 ft | 418 kts | 283° |
| 2026-05-06 22:07 | 29.54387 | 32.88757 | 35748 ft | 418 kts | 283° |
| 2026-05-06 22:07 | 29.55274 | 32.85572 | 35493 ft | 418 kts | 284° |
| 2026-05-06 22:08 | 29.56161 | 32.82377 | 34734 ft | 421 kts | 284° |
| 2026-05-06 22:08 | 29.57053 | 32.79156 | 33955 ft | 423 kts | 284° |
| 2026-05-06 22:08 | 29.57942 | 32.75929 | 33038 ft | 426 kts | 284° |
| 2026-05-06 22:08 | 29.58839 | 32.72669 | 32052 ft | 431 kts | 285° |
| 2026-05-06 22:09 | 29.59747 | 32.69375 | 31078 ft | 434 kts | 285° |
| 2026-05-06 22:09 | 29.60628 | 32.66055 | 30061 ft | 436 kts | 284° |
| 2026-05-06 22:09 | 29.61425 | 32.62724 | 29179 ft | 436 kts | 283° |
| 2026-05-06 22:09 | 29.62169 | 32.59378 | 28548 ft | 429 kts | 282° |
| 2026-05-06 22:10 | 29.62888 | 32.56056 | 27846 ft | 425 kts | 282° |
| 2026-05-06 22:10 | 29.63596 | 32.52779 | 27164 ft | 421 kts | 282° |
| 2026-05-06 22:10 | 29.64309 | 32.49525 | 26497 ft | 416 kts | 283° |
| 2026-05-06 22:10 | 29.65024 | 32.46312 | 25836 ft | 413 kts | 283° |
| 2026-05-06 22:11 | 29.65741 | 32.43131 | 25180 ft | 409 kts | 283° |
| 2026-05-06 22:11 | 29.66456 | 32.39980 | 24530 ft | 405 kts | 283° |
| 2026-05-06 22:11 | 29.67153 | 32.36901 | 23903 ft | 401 kts | 283° |
| 2026-05-06 22:11 | 29.67850 | 32.33818 | 23293 ft | 397 kts | 283° |
| 2026-05-06 22:12 | 29.68541 | 32.30759 | 22702 ft | 393 kts | 283° |
| 2026-05-06 22:12 | 29.69220 | 32.27732 | 22139 ft | 388 kts | 283° |
| 2026-05-06 22:12 | 29.69890 | 32.24744 | 21602 ft | 384 kts | 283° |
| 2026-05-06 22:12 | 29.70554 | 32.21785 | 21098 ft | 379 kts | 283° |
| 2026-05-06 22:13 | 29.71209 | 32.18866 | 20588 ft | 375 kts | 283° |
| 2026-05-06 22:13 | 29.71856 | 32.15981 | 20092 ft | 371 kts | 283° |
| 2026-05-06 22:13 | 29.72496 | 32.13124 | 19599 ft | 367 kts | 283° |
| 2026-05-06 22:13 | 29.73127 | 32.10299 | 19111 ft | 363 kts | 283° |
| 2026-05-06 22:14 | 29.73752 | 32.07493 | 18615 ft | 360 kts | 283° |
| 2026-05-06 22:14 | 29.74372 | 32.04707 | 18108 ft | 358 kts | 283° |
| 2026-05-06 22:14 | 29.74989 | 32.01936 | 17601 ft | 356 kts | 283° |
| 2026-05-06 22:14 | 29.75592 | 31.99220 | 17088 ft | 354 kts | 283° |
| 2026-05-06 22:15 | 29.76202 | 31.96476 | 16571 ft | 352 kts | 283° |
| 2026-05-06 22:15 | 29.76804 | 31.93746 | 16057 ft | 351 kts | 283° |
| 2026-05-06 22:15 | 29.77404 | 31.91025 | 15533 ft | 350 kts | 283° |
| 2026-05-06 22:15 | 29.78044 | 31.88328 | 15002 ft | 349 kts | 288° |
| 2026-05-06 22:16 | 29.79065 | 31.85800 | 14470 ft | 349 kts | 300° |
| 2026-05-06 22:16 | 29.80463 | 31.83515 | 13946 ft | 348 kts | 305° |
| 2026-05-06 22:16 | 29.81908 | 31.81280 | 13400 ft | 347 kts | 305° |
| 2026-05-06 22:16 | 29.83339 | 31.79053 | 12860 ft | 345 kts | 305° |
| 2026-05-06 22:17 | 29.84762 | 31.76834 | 12305 ft | 344 kts | 305° |
| 2026-05-06 22:17 | 29.86180 | 31.74619 | 11761 ft | 342 kts | 305° |
| 2026-05-06 22:17 | 29.87590 | 31.72415 | 11192 ft | 341 kts | 306° |
| 2026-05-06 22:17 | 29.88998 | 31.70217 | 10662 ft | 338 kts | 306° |
| 2026-05-06 22:18 | 29.90363 | 31.68079 | 10539 ft | 324 kts | 304° |
| 2026-05-06 22:18 | 29.91406 | 31.65846 | 10409 ft | 311 kts | 291° |
| 2026-05-06 22:18 | 29.91963 | 31.63488 | 10279 ft | 299 kts | 281° |
| 2026-05-06 22:18 | 29.92335 | 31.61168 | 10049 ft | 292 kts | 281° |
| 2026-05-06 22:19 | 29.92703 | 31.58911 | 9904 ft | 288 kts | 281° |
| 2026-05-06 22:19 | 29.93076 | 31.56630 | 9500 ft | 293 kts | 281° |
| 2026-05-06 22:19 | 29.93452 | 31.54325 | 9167 ft | 290 kts | 282° |
| 2026-05-06 22:19 | 29.93821 | 31.52051 | 8771 ft | 288 kts | 282° |
| 2026-05-06 22:20 | 29.94188 | 31.49780 | 8356 ft | 286 kts | 282° |
| 2026-05-06 22:20 | 29.94554 | 31.47523 | 7851 ft | 287 kts | 282° |
| 2026-05-06 22:20 | 29.94930 | 31.45219 | 7071 ft | 298 kts | 282° |
| 2026-05-06 22:20 | 29.95320 | 31.42831 | 6267 ft | 307 kts | 282° |
| 2026-05-06 22:21 | 29.95722 | 31.40383 | 5440 ft | 316 kts | 282° |
| 2026-05-06 22:21 | 29.96126 | 31.37892 | 4743 ft | 319 kts | 282° |
| 2026-05-06 22:21 | 29.96521 | 31.35426 | 4536 ft | 305 kts | 282° |
| 2026-05-06 22:21 | 29.96894 | 31.33082 | 4480 ft | 288 kts | 282° |
| 2026-05-06 22:22 | 29.97241 | 31.30887 | 4493 ft | 268 kts | 283° |
| 2026-05-06 22:22 | 29.97613 | 31.28856 | 4490 ft | 251 kts | 283° |
| 2026-05-06 22:22 | 29.97926 | 31.26943 | 4489 ft | 238 kts | 283° |
| 2026-05-06 22:22 | 29.98224 | 31.25073 | 4498 ft | 235 kts | 283° |
| 2026-05-06 22:23 | 29.98511 | 31.23258 | 4506 ft | 224 kts | 283° |
| 2026-05-06 22:23 | 29.98780 | 31.21527 | 4506 ft | 215 kts | 283° |
| 2026-05-06 22:23 | 29.98911 | 31.19815 | 4490 ft | 216 kts | 263° |
| 2026-05-06 22:23 | 29.98287 | 31.18237 | 4496 ft | 220 kts | 234° |
| 2026-05-06 22:24 | 29.97118 | 31.17094 | 4504 ft | 224 kts | 206° |
| 2026-05-06 22:24 | 29.95629 | 31.16723 | 4503 ft | 225 kts | 175° |
| 2026-05-06 22:24 | 29.94143 | 31.17284 | 4500 ft | 223 kts | 143° |
| 2026-05-06 22:24 | 29.93243 | 31.18626 | 4493 ft | 215 kts | 100° |
| 2026-05-06 22:25 | 29.93377 | 31.20228 | 4485 ft | 198 kts | 56° |
| 2026-05-06 22:25 | 29.94421 | 31.21160 | 4490 ft | 193 kts | 16° |
| 2026-05-06 22:25 | 29.95686 | 31.21635 | 4439 ft | 188 kts | 25° |
| 2026-05-06 22:25 | 29.96746 | 31.22493 | 4244 ft | 185 kts | 40° |
| 2026-05-06 22:26 | 29.97629 | 31.23507 | 4004 ft | 173 kts | 45° |
| 2026-05-06 22:26 | 29.98419 | 31.24509 | 3797 ft | 166 kts | 46° |
| 2026-05-06 22:26 | 29.99163 | 31.25482 | 3578 ft | 156 kts | 46° |
| 2026-05-06 22:26 | 29.99845 | 31.26380 | 3392 ft | 146 kts | 47° |
| 2026-05-06 22:27 | 30.00499 | 31.27245 | 3196 ft | 141 kts | 47° |
| 2026-05-06 22:27 | 30.01136 | 31.28089 | 3019 ft | 139 kts | 47° |
| 2026-05-06 22:27 | 30.01769 | 31.28927 | 2832 ft | 138 kts | 47° |
| 2026-05-06 22:27 | 30.02395 | 31.29757 | 2652 ft | 137 kts | 48° |
| 2026-05-06 22:28 | 30.03018 | 31.30585 | 2471 ft | 136 kts | 47° |
| 2026-05-06 22:28 | 30.03629 | 31.31396 | 2298 ft | 135 kts | 47° |
| 2026-05-06 22:28 | 30.04247 | 31.32217 | 2113 ft | 135 kts | 48° |
| 2026-05-06 22:28 | 30.04859 | 31.33029 | 1936 ft | 133 kts | 47° |
| 2026-05-06 22:29 | 30.05454 | 31.33819 | 1771 ft | 129 kts | 47° |
| 2026-05-06 22:29 | 30.06038 | 31.34595 | 1594 ft | 127 kts | 47° |
| 2026-05-06 22:29 | 30.06617 | 31.35365 | 1423 ft | 127 kts | 47° |
| 2026-05-06 22:29 | 30.07192 | 31.36130 | 1255 ft | 126 kts | 47° |
| 2026-05-06 22:30 | 30.07769 | 31.36894 | 1083 ft | 126 kts | 47° |
| 2026-05-06 22:30 | 30.08332 | 31.37668 | 918 ft | 126 kts | 50° |
| 2026-05-06 22:30 | 30.08896 | 31.38442 | 749 ft | 126 kts | 46° |
| 2026-05-06 22:30 | 30.09493 | 31.39186 | 580 ft | 127 kts | 46° |
| 2026-05-06 22:31 | 30.10069 | 31.39960 | 395 ft | 127 kts | 49° |
| 2026-05-06 22:31 | 30.10580 | 31.40639 | 375 ft | 89 kts | 47° |
| 2026-05-06 22:31 | 30.10878 | 31.41020 | 372 ft | 39 kts | 48° |
| 2026-05-06 22:31 | 30.11037 | 31.41233 | 375 ft | 34 kts | 50° |
| 2026-05-06 22:32 | 30.11187 | 31.41433 | 373 ft | 32 kts | 49° |
| 2026-05-06 22:32 | 30.11337 | 31.41565 | 374 ft | 25 kts | 27° |
| 2026-05-06 22:32 | 30.11489 | 31.41627 | 375 ft | 16 kts | 9° |
| 2026-05-06 22:32 | 30.11549 | 31.41551 | 375 ft | 17 kts | 246° |
| 2026-05-06 22:33 | 30.11477 | 31.41438 | 375 ft | 18 kts | 229° |
| 2026-05-06 22:33 | 30.11393 | 31.41327 | 375 ft | 19 kts | 229° |
| 2026-05-06 22:33 | 30.11304 | 31.41205 | 375 ft | 21 kts | 229° |
| 2026-05-06 22:33 | 30.11201 | 31.41071 | 375 ft | 24 kts | 229° |
| 2026-05-06 22:34 | 30.11089 | 31.40920 | 375 ft | 22 kts | 230° |
| 2026-05-06 22:34 | 30.11075 | 31.40813 | 375 ft | 15 kts | 302° |
| 2026-05-06 22:34 | 30.11051 | 31.40713 | 374 ft | 13 kts | 232° |
| 2026-05-06 22:34 | 30.10993 | 31.40633 | 374 ft | 13 kts | 229° |
| 2026-05-06 22:35 | 30.10938 | 31.40559 | 374 ft | 12 kts | 229° |
| 2026-05-06 22:35 | 30.10919 | 31.40479 | 374 ft | 10 kts | 280° |
| 2026-05-06 22:35 | 30.10938 | 31.40404 | 374 ft | 9 kts | 288° |
| 2026-05-06 22:35 | 30.10956 | 31.40339 | 374 ft | 8 kts | 287° |
| 2026-05-06 22:36 | 30.10972 | 31.40281 | 374 ft | 7 kts | 287° |
| 2026-05-06 22:36 | 30.10985 | 31.40229 | 374 ft | 6 kts | 287° |
| 2026-05-06 22:36 | 30.10998 | 31.40182 | 374 ft | 6 kts | 287° |
| 2026-05-06 22:36 | 30.11021 | 31.40153 | 374 ft | 4 kts | 332° |
| 2026-05-06 22:37 | 30.11047 | 31.40148 | 374 ft | 3 kts | 4° |
| 2026-05-06 22:37 | 30.11067 | 31.40154 | 374 ft | 2 kts | 16° |
| 2026-05-06 22:37 | 30.11080 | 31.40159 | 374 ft | 2 kts | 17° |
| 2026-05-06 22:37 | 30.11088 | 31.40162 | 374 ft | 1 kts | 17° |
| 2026-05-06 22:38 | 30.11090 | 31.40163 | 374 ft | 0 kts | 17° |
| 2026-05-06 22:38 | 30.11098 | 31.40165 | 374 ft | 1 kts | 17° |
| 2026-05-06 22:38 | 30.11099 | 31.40166 | 374 ft | 0 kts | 17° |
| 2026-05-06 22:38 | 30.11100 | 31.40166 | 374 ft | 1 kts | 17° |
| 2026-05-06 22:39 | 30.11106 | 31.40168 | 374 ft | 1 kts | 17° |
| 2026-05-06 22:39 | 30.11107 | 31.40169 | 374 ft | 0 kts | 17° |